Time;durP1;ratioP1;P1;durP2;ratioP2;P2;SDS_P1;SDS_P2;PMS_P1;PMS_P2;Temp;Humidity;BMP_temperature;BMP_pressure;BME280_temperature;BME280_humidity;BME280_pressure;Samples;Min_cycle;Max_cycle;Signal;HPM_P1;HPM_P2
2022/11/16 00:01:48;;;;;;;2.45;1.80;;;14.50;99.90;;;;;;5028140;28;20030;-82
2022/11/16 00:04:13;;;;;;;3.50;1.77;;;14.50;99.90;;;;;;5006858;28;20036;-82
2022/11/16 00:06:39;;;;;;;3.13;1.73;;;14.60;99.90;;;;;;5004117;28;20246;-82
2022/11/16 00:09:25;;;;;;;2.90;1.73;;;14.50;99.90;;;;;;5028097;28;20048;-81
2022/11/16 00:12:00;;;;;;;2.30;1.40;;;14.50;99.90;;;;;;5034461;28;20037;-81
2022/11/16 00:14:32;;;;;;;2.67;1.70;;;14.60;99.90;;;;;;5030096;28;20425;-81
2022/11/16 00:16:58;;;;;;;3.07;1.47;;;14.50;99.90;;;;;;5032389;28;20388;-81
2022/11/16 00:19:24;;;;;;;2.70;1.60;;;14.50;99.90;;;;;;5014249;28;22022;-81
2022/11/16 00:21:51;;;;;;;4.20;1.63;;;14.50;99.90;;;;;;5028396;28;20386;-81
2022/11/16 00:24:18;;;;;;;2.38;1.60;;;14.50;99.90;;;;;;5017885;28;20025;-81
2022/11/16 00:26:45;;;;;;;2.28;1.60;;;14.50;99.90;;;;;;5018215;28;20084;-81
2022/11/16 00:29:19;;;;;;;2.23;1.50;;;14.50;99.90;;;;;;5020812;28;20033;-81
2022/11/16 00:31:45;;;;;;;2.25;1.45;;;14.50;99.90;;;;;;5034210;28;20013;-81
2022/11/16 00:34:11;;;;;;;2.25;1.65;;;14.50;99.90;;;;;;5022714;28;20089;-81
2022/11/16 00:36:37;;;;;;;2.20;1.60;;;14.60;99.90;;;;;;5004825;28;20057;-81
2022/11/16 00:39:03;;;;;;;2.40;1.70;;;14.50;99.90;;;;;;5016475;28;20031;-81
2022/11/16 00:41:28;;;;;;;2.22;1.60;;;14.50;99.90;;;;;;5013304;28;20525;-81
2022/11/16 00:43:54;;;;;;;2.67;1.40;;;14.50;99.90;;;;;;5020108;28;20032;-81
2022/11/16 00:46:20;;;;;;;2.60;1.70;;;14.50;99.90;;;;;;5008461;28;20276;-81
2022/11/16 00:48:46;;;;;;;2.25;1.52;;;14.50;99.90;;;;;;5027421;28;20040;-81
2022/11/16 00:51:11;;;;;;;2.60;1.80;;;14.50;99.90;;;;;;5002065;28;20554;-81
2022/11/16 00:53:37;;;;;;;2.75;1.60;;;14.60;99.90;;;;;;4996822;28;20201;-80
2022/11/16 00:56:04;;;;;;;3.33;1.92;;;14.50;99.90;;;;;;5019782;28;20036;-80
2022/11/16 00:58:30;;;;;;;1.93;1.40;;;14.50;99.90;;;;;;5006703;28;20653;-81
2022/11/16 01:00:55;;;;;;;3.50;1.60;;;14.60;99.90;;;;;;5021637;28;20064;-82
2022/11/16 01:03:21;;;;;;;2.30;1.63;;;14.50;99.90;;;;;;5021824;28;20100;-81
2022/11/16 01:05:46;;;;;;;2.70;1.77;;;14.60;99.90;;;;;;5029586;28;20036;-82
2022/11/16 01:08:12;;;;;;;2.97;2.00;;;14.60;99.90;;;;;;4998122;28;20435;-82
2022/11/16 01:10:40;;;;;;;3.30;1.80;;;14.50;99.90;;;;;;5041918;28;20034;-81
2022/11/16 01:13:06;;;;;;;4.38;1.77;;;14.60;99.90;;;;;;5023027;28;20053;-81
2022/11/16 01:15:32;;;;;;;2.17;1.50;;;14.60;99.90;;;;;;5019931;28;20125;-81
2022/11/16 01:17:57;;;;;;;2.70;1.43;;;14.60;99.90;;;;;;5025264;28;20029;-81
2022/11/16 01:20:26;;;;;;;2.72;1.70;;;14.60;99.90;;;;;;5053627;28;20276;-81
2022/11/16 01:22:52;;;;;;;2.75;1.33;;;14.60;99.90;;;;;;5039063;28;20474;-81
2022/11/16 01:25:18;;;;;;;2.73;1.40;;;14.60;99.90;;;;;;5041130;28;20527;-81
2022/11/16 01:27:44;;;;;;;1.67;1.23;;;14.50;99.90;;;;;;5018818;28;20054;-81
2022/11/16 01:30:12;;;;;;;2.28;1.50;;;14.50;99.90;;;;;;5025899;28;20100;-81
2022/11/16 01:32:38;;;;;;;2.13;1.63;;;14.50;99.90;;;;;;5025182;28;20053;-81
2022/11/16 01:35:04;;;;;;;2.45;1.33;;;14.50;99.90;;;;;;5027011;28;20553;-81
2022/11/16 01:37:30;;;;;;;2.38;1.58;;;14.50;99.90;;;;;;5003680;28;20498;-81
2022/11/16 01:39:56;;;;;;;3.07;1.77;;;14.50;99.90;;;;;;5020364;28;20075;-81
2022/11/16 01:42:26;;;;;;;2.90;1.60;;;14.50;99.90;;;;;;5018415;28;20103;-81
2022/11/16 01:45:03;;;;;;;2.55;1.65;;;14.50;99.90;;;;;;5040095;28;20386;-81
2022/11/16 01:47:29;;;;;;;2.23;1.63;;;14.40;99.90;;;;;;5029330;28;20182;-81
2022/11/16 01:50:12;;;;;;;2.95;1.75;;;14.40;99.90;;;;;;5027389;28;20038;-81
2022/11/16 01:52:44;;;;;;;2.65;1.60;;;14.40;99.90;;;;;;5009019;28;20648;-81
2022/11/16 01:55:11;;;;;;;2.33;1.75;;;14.40;99.90;;;;;;5016847;28;20045;-81
2022/11/16 01:57:41;;;;;;;2.15;1.58;;;14.40;99.90;;;;;;5046303;28;20191;-81
2022/11/16 02:00:08;;;;;;;3.03;1.70;;;14.40;99.90;;;;;;5027940;28;20029;-81
2022/11/16 02:02:34;;;;;;;2.50;1.52;;;14.40;99.90;;;;;;5027918;28;20053;-80
2022/11/16 02:05:01;;;;;;;2.13;1.40;;;14.40;99.90;;;;;;5026128;28;20779;-80
2022/11/16 02:10:51;;;;;;;2.30;1.42;;;14.30;99.90;;;;;;5010754;28;20063;-80
2022/11/16 02:14:03;;;;;;;2.38;1.63;;;14.30;99.90;;;;;;5045550;28;20036;-80
2022/11/16 02:16:47;;;;;;;3.05;1.52;;;14.30;99.90;;;;;;4977660;28;20043;-79
2022/11/16 02:19:18;;;;;;;2.33;1.45;;;14.20;99.90;;;;;;5026867;28;20043;-80
2022/11/16 02:22:01;;;;;;;2.20;1.47;;;14.20;99.90;;;;;;5021732;28;20029;-80
2022/11/16 02:24:53;;;;;;;2.67;1.67;;;14.20;99.90;;;;;;5008691;28;20528;-79
2022/11/16 02:27:38;;;;;;;2.55;1.48;;;14.20;99.90;;;;;;5014485;28;20034;-80
2022/11/16 02:30:04;;;;;;;2.20;1.50;;;14.10;99.90;;;;;;5036971;28;20677;-80
2022/11/16 02:32:59;;;;;;;2.05;1.50;;;14.10;99.90;;;;;;5043599;28;20029;-79
2022/11/16 02:35:31;;;;;;;2.57;1.40;;;14.00;99.90;;;;;;5029536;28;20052;-80
2022/11/16 02:38:26;;;;;;;2.60;1.75;;;14.10;99.90;;;;;;5032329;28;20033;-80
2022/11/16 02:41:00;;;;;;;2.50;1.27;;;14.00;99.90;;;;;;4996548;28;21574;-79
2022/11/16 02:43:34;;;;;;;3.03;1.60;;;14.00;99.90;;;;;;5043429;28;20109;-79
2022/11/16 02:46:04;;;;;;;1.85;1.38;;;13.90;99.90;;;;;;5026621;28;20226;-79
2022/11/16 02:48:36;;;;;;;2.23;1.40;;;13.90;99.90;;;;;;5033790;28;20480;-80
2022/11/16 02:51:05;;;;;;;2.35;1.30;;;13.90;99.90;;;;;;5023956;28;20433;-79
2022/11/16 02:53:35;;;;;;;2.10;1.33;;;13.80;99.90;;;;;;5035415;28;20032;-79
2022/11/16 02:56:01;;;;;;;2.03;1.25;;;13.80;99.90;;;;;;4997044;28;20598;-79
2022/11/16 02:58:28;;;;;;;2.97;1.50;;;13.80;99.90;;;;;;5032501;28;20024;-80
2022/11/16 03:00:56;;;;;;;2.30;1.15;;;13.70;99.90;;;;;;5047732;28;20302;-79
2022/11/16 03:03:47;;;;;;;3.17;1.30;;;13.70;99.90;;;;;;5032900;28;20075;-79
2022/11/16 03:06:19;;;;;;;2.10;1.15;;;13.60;99.90;;;;;;5043967;28;20026;-79
2022/11/16 03:08:56;;;;;;;1.80;1.10;;;13.60;99.90;;;;;;5028837;28;21337;-79
2022/11/16 03:14:10;;;;;;;2.67;1.30;;;13.50;99.90;;;;;;5045162;28;20033;-79
2022/11/16 03:16:41;;;;;;;2.83;1.35;;;13.40;99.90;;;;;;5030973;28;20021;-80
2022/11/16 03:19:13;;;;;;;2.72;1.50;;;13.40;99.90;;;;;;5032141;28;20552;-80
2022/11/16 03:21:40;;;;;;;2.60;1.30;;;13.40;99.90;;;;;;5011160;28;20059;-79
2022/11/16 03:24:07;;;;;;;2.00;1.35;;;13.40;99.90;;;;;;5027725;28;20033;-79
2022/11/16 03:26:48;;;;;;;1.67;1.23;;;13.40;99.90;;;;;;5015246;28;20028;-79
2022/11/16 03:29:19;;;;;;;2.45;1.25;;;13.30;99.90;;;;;;5030213;28;20029;-79
2022/11/16 03:31:51;;;;;;;2.30;1.30;;;13.30;99.90;;;;;;5021152;28;20488;-79
2022/11/16 03:34:21;;;;;;;2.27;1.13;;;13.30;99.90;;;;;;5036128;28;20033;-79
2022/11/16 03:36:49;;;;;;;2.13;1.23;;;13.30;99.90;;;;;;5028492;28;20021;-79
2022/11/16 03:39:27;;;;;;;2.05;1.40;;;13.30;99.90;;;;;;5034015;28;20079;-79
2022/11/16 03:41:55;;;;;;;2.63;1.27;;;13.20;99.90;;;;;;5000040;28;20597;-79
2022/11/16 03:44:21;;;;;;;3.03;1.30;;;13.20;99.90;;;;;;5028895;28;20036;-79
2022/11/16 03:46:47;;;;;;;1.87;1.07;;;13.20;99.90;;;;;;5009302;28;20115;-79
2022/11/16 03:49:13;;;;;;;1.90;1.20;;;13.20;99.90;;;;;;5033841;28;20052;-79
2022/11/16 03:51:39;;;;;;;1.67;1.00;;;13.20;99.90;;;;;;5034107;28;20413;-79
2022/11/16 03:54:05;;;;;;;2.10;1.05;;;13.20;99.90;;;;;;5016969;28;20037;-79
2022/11/16 03:56:31;;;;;;;1.67;0.93;;;13.20;99.90;;;;;;5009253;28;26274;-79
2022/11/16 03:58:56;;;;;;;2.97;1.30;;;13.20;99.90;;;;;;5023057;28;20017;-79
2022/11/16 04:01:22;;;;;;;1.83;1.00;;;13.20;99.90;;;;;;5033746;28;20033;-79
2022/11/16 04:03:48;;;;;;;1.97;0.87;;;13.20;99.90;;;;;;5031152;28;20524;-79
2022/11/16 04:25:45;;;;;;;1.92;1.10;;;12.80;99.90;;;;;;5027899;28;20087;-79
2022/11/16 04:28:15;;;;;;;1.03;0.87;;;12.70;99.80;;;;;;5006369;28;20024;-79
2022/11/16 04:39:00;;;;;;;1.75;1.00;;;12.50;99.50;;;;;;5032852;28;20770;-79
2022/11/16 04:44:10;;;;;;;2.05;0.85;;;12.40;99.20;;;;;;4999230;28;20179;-79
2022/11/16 04:49:20;;;;;;;2.20;0.93;;;12.20;99.20;;;;;;5023621;28;20391;-79
2022/11/16 04:51:45;;;;;;;1.95;0.90;;;12.20;99.00;;;;;;5026182;28;20018;-79
2022/11/16 04:54:11;;;;;;;1.77;0.80;;;12.10;99.20;;;;;;5016785;28;20637;-79
2022/11/16 04:56:37;;;;;;;1.37;0.70;;;12.10;99.30;;;;;;5040478;28;20057;-79
2022/11/16 04:59:03;;;;;;;1.67;0.87;;;12.00;99.30;;;;;;5025842;28;20283;-79
2022/11/16 05:04:12;;;;;;;2.10;0.90;;;11.90;99.50;;;;;;5042034;28;20582;-79
2022/11/16 05:06:38;;;;;;;2.13;0.90;;;11.90;99.70;;;;;;5040590;28;20061;-79
2022/11/16 05:09:03;;;;;;;2.57;1.03;;;11.90;99.70;;;;;;5035262;28;20025;-79
2022/11/16 05:11:29;;;;;;;2.00;1.10;;;11.80;99.80;;;;;;5035755;28;20749;-79
2022/11/16 05:13:55;;;;;;;1.07;0.80;;;11.80;99.90;;;;;;5027864;28;20465;-79
2022/11/16 05:16:20;;;;;;;2.20;1.20;;;11.80;99.90;;;;;;5030484;28;20222;-79
2022/11/16 05:20:59;;;;;;;1.40;0.90;;;11.80;99.90;;;;;;5041003;28;20025;-79
2022/11/16 05:21:31;;;;;;;2.35;1.00;;;11.70;99.90;;;;;;5035212;28;20028;-79
2022/11/16 05:26:41;;;;;;;3.35;1.00;;;11.70;99.90;;;;;;5029326;28;20064;-79
2022/11/16 05:29:07;;;;;;;1.80;1.00;;;11.70;99.90;;;;;;5015383;28;20119;-78
2022/11/16 05:31:32;;;;;;;2.60;1.08;;;11.60;99.90;;;;;;5019815;28;20013;-79
2022/11/16 05:33:58;;;;;;;2.70;1.00;;;11.60;99.90;;;;;;5022331;28;20121;-79
2022/11/16 05:36:23;;;;;;;1.65;1.10;;;11.60;99.90;;;;;;5026422;28;20244;-79
2022/11/16 05:38:49;;;;;;;2.87;0.97;;;11.60;99.90;;;;;;5033761;28;21758;-79
2022/11/16 05:41:15;;;;;;;2.63;1.03;;;11.60;99.90;;;;;;5027270;28;20071;-79
2022/11/16 05:43:40;;;;;;;1.85;1.05;;;11.50;99.80;;;;;;5027866;28;20309;-79
2022/11/16 05:46:06;;;;;;;1.67;0.90;;;11.50;99.70;;;;;;5027022;28;20104;-79
2022/11/16 05:48:31;;;;;;;2.13;1.08;;;11.50;99.70;;;;;;5016167;28;20130;-79
2022/11/16 05:51:00;;;;;;;3.30;1.00;;;11.40;99.70;;;;;;5016662;28;20021;-79
2022/11/16 05:53:26;;;;;;;1.55;1.00;;;11.50;99.70;;;;;;5024570;28;20025;-78
2022/11/16 05:55:51;;;;;;;2.30;1.10;;;11.40;99.60;;;;;;5023808;28;20778;-79
2022/11/16 05:58:17;;;;;;;2.20;1.25;;;11.40;99.70;;;;;;5021874;28;20141;-79
2022/11/16 06:00:45;;;;;;;2.80;0.90;;;11.40;99.80;;;;;;4988658;28;20185;-79
2022/11/16 06:03:11;;;;;;;2.15;1.00;;;11.30;99.80;;;;;;4986762;28;20174;-79
2022/11/16 06:05:37;;;;;;;1.67;0.90;;;11.30;99.80;;;;;;5018065;28;20050;-79
2022/11/16 06:08:03;;;;;;;1.80;1.00;;;11.30;99.80;;;;;;5007890;28;20155;-79
2022/11/16 06:10:28;;;;;;;3.83;1.30;;;11.20;99.80;;;;;;5025084;28;20044;-79
2022/11/16 06:12:54;;;;;;;2.13;1.00;;;11.20;99.80;;;;;;5025220;28;20046;-79
2022/11/16 06:15:20;;;;;;;3.60;1.20;;;11.20;99.80;;;;;;5002330;28;21656;-79
2022/11/16 06:17:45;;;;;;;1.23;1.00;;;11.20;99.80;;;;;;5027700;28;20029;-79
2022/11/16 06:20:11;;;;;;;1.87;0.93;;;11.10;99.80;;;;;;4996110;28;20200;-78
2022/11/16 06:22:37;;;;;;;2.67;1.20;;;11.10;99.80;;;;;;4996847;28;23253;-79
2022/11/16 06:25:03;;;;;;;1.40;0.90;;;11.10;99.80;;;;;;5034500;28;20053;-80
2022/11/16 06:27:29;;;;;;;2.15;1.10;;;11.00;99.90;;;;;;5024016;28;20025;-79
2022/11/16 06:29:54;;;;;;;1.98;0.90;;;11.00;99.90;;;;;;5036988;28;20044;-79
2022/11/16 06:32:20;;;;;;;1.47;0.90;;;11.00;99.90;;;;;;4993851;28;20045;-79
2022/11/16 06:34:46;;;;;;;1.17;0.80;;;11.00;99.90;;;;;;4999847;28;20559;-79
2022/11/16 06:37:12;;;;;;;3.17;1.17;;;10.90;99.90;;;;;;5019128;28;20045;-79
2022/11/16 06:39:37;;;;;;;2.72;0.90;;;10.90;99.90;;;;;;5013307;28;20332;-79
2022/11/16 06:42:03;;;;;;;3.07;0.90;;;10.90;99.90;;;;;;5033251;28;20059;-79
2022/11/16 06:44:29;;;;;;;3.03;1.10;;;10.90;99.90;;;;;;5020780;28;20257;-79
2022/11/16 06:46:54;;;;;;;2.30;0.90;;;10.90;99.90;;;;;;5017175;28;20033;-79
2022/11/16 06:49:20;;;;;;;1.98;1.10;;;10.80;99.90;;;;;;4991424;28;20036;-79
2022/11/16 06:51:45;;;;;;;3.30;1.00;;;10.80;99.90;;;;;;5027415;28;20041;-79
2022/11/16 06:54:11;;;;;;;3.13;1.00;;;10.80;99.90;;;;;;5001570;28;20421;-79
2022/11/16 06:56:37;;;;;;;3.60;1.10;;;10.80;99.90;;;;;;5025733;28;20206;-79
2022/11/16 06:59:02;;;;;;;1.73;0.90;;;10.80;99.90;;;;;;5029339;28;20029;-79
2022/11/16 07:01:28;;;;;;;2.70;0.93;;;10.80;99.90;;;;;;5030792;28;20304;-79
2022/11/16 07:03:55;;;;;;;2.23;0.90;;;10.80;99.90;;;;;;5006884;28;20535;-79
2022/11/16 07:06:20;;;;;;;2.33;0.80;;;10.80;99.90;;;;;;5012500;28;20123;-79
2022/11/16 07:08:46;;;;;;;3.20;1.10;;;10.70;99.90;;;;;;5003193;28;20420;-79
2022/11/16 07:11:12;;;;;;;2.08;0.90;;;10.80;99.90;;;;;;5021876;28;20072;-79
2022/11/16 07:13:38;;;;;;;1.67;0.90;;;10.80;99.90;;;;;;5023805;28;20025;-79
2022/11/16 07:16:08;;;;;;;2.28;0.90;;;10.80;99.90;;;;;;5047854;28;20025;-79
2022/11/16 07:18:36;;;;;;;2.33;0.90;;;10.70;99.90;;;;;;5027892;28;20261;-79
2022/11/16 07:21:05;;;;;;;4.63;1.50;;;10.70;99.90;;;;;;5021482;28;20038;-79
2022/11/16 07:23:31;;;;;;;2.73;0.90;;;10.70;99.90;;;;;;5027502;28;23127;-78
2022/11/16 07:26:01;;;;;;;3.03;1.00;;;10.70;99.90;;;;;;5005560;28;20028;-79
2022/11/16 07:28:28;;;;;;;2.15;0.80;;;10.70;99.90;;;;;;5015615;28;20037;-79
2022/11/16 07:30:54;;;;;;;3.90;1.10;;;10.70;99.90;;;;;;5061434;28;20022;-79
2022/11/16 07:33:20;;;;;;;3.03;1.10;;;10.70;99.90;;;;;;4996904;28;21437;-78
2022/11/16 07:35:46;;;;;;;2.03;0.88;;;10.70;99.90;;;;;;5038088;28;20034;-79
2022/11/16 07:38:11;;;;;;;1.60;0.80;;;10.70;99.90;;;;;;5006959;28;20042;-78
2022/11/16 07:40:37;;;;;;;3.10;1.10;;;10.70;99.90;;;;;;5025117;28;20071;-79
2022/11/16 07:43:02;;;;;;;3.13;0.80;;;10.80;99.90;;;;;;5026177;28;20445;-78
2022/11/16 07:45:28;;;;;;;2.27;0.70;;;10.70;99.90;;;;;;5022648;28;20353;-79
2022/11/16 07:47:54;;;;;;;1.35;0.90;;;10.70;99.90;;;;;;5012900;28;20049;-78
2022/11/16 07:50:19;;;;;;;2.03;1.00;;;10.80;99.90;;;;;;5008007;28;20036;-79
2022/11/16 07:52:45;;;;;;;2.10;0.80;;;10.80;99.90;;;;;;5019941;28;20041;-79
2022/11/16 07:55:14;;;;;;;2.73;0.90;;;10.80;99.90;;;;;;4991458;28;20445;-78
2022/11/16 07:57:40;;;;;;;2.08;1.10;;;10.80;99.90;;;;;;5043965;28;20087;-78
2022/11/16 08:00:07;;;;;;;3.95;0.80;;;10.80;99.90;;;;;;5017360;28;20029;-79
2022/11/16 08:02:32;;;;;;;3.35;1.10;;;10.80;99.90;;;;;;5026735;28;20033;-79
2022/11/16 08:04:58;;;;;;;2.23;0.80;;;10.80;99.90;;;;;;5005518;28;20426;-79
2022/11/16 08:07:24;;;;;;;4.67;1.10;;;10.80;99.90;;;;;;5005862;28;20134;-79
2022/11/16 08:09:49;;;;;;;1.77;0.80;;;10.80;99.90;;;;;;5026814;28;20264;-79
2022/11/16 08:12:16;;;;;;;3.07;1.00;;;10.90;99.90;;;;;;5036593;28;20224;-79
2022/11/16 08:14:42;;;;;;;4.15;1.10;;;10.90;99.90;;;;;;5024104;28;20017;-79
2022/11/16 08:17:07;;;;;;;3.72;1.20;;;10.90;99.90;;;;;;5014185;28;20035;-79
2022/11/16 08:19:35;;;;;;;1.90;1.00;;;10.90;99.90;;;;;;5001342;28;20418;-79
2022/11/16 08:22:01;;;;;;;1.65;0.88;;;10.90;99.90;;;;;;5026330;28;20389;-79
2022/11/16 08:24:27;;;;;;;2.00;0.82;;;10.90;99.90;;;;;;5016321;28;20098;-79
2022/11/16 08:26:53;;;;;;;1.53;0.80;;;10.90;99.90;;;;;;5019068;28;20021;-79
2022/11/16 08:29:18;;;;;;;1.92;0.90;;;11.00;99.90;;;;;;5029981;28;20025;-79
2022/11/16 08:31:44;;;;;;;3.13;0.90;;;11.00;99.90;;;;;;5017832;28;20773;-78
2022/11/16 08:34:10;;;;;;;1.33;0.77;;;11.10;99.90;;;;;;5008406;28;20064;-79
2022/11/16 08:36:36;;;;;;;1.67;0.87;;;11.10;99.90;;;;;;5008297;28;20029;-79
2022/11/16 08:39:01;;;;;;;2.88;1.10;;;11.10;99.90;;;;;;5019871;28;20400;-79
2022/11/16 08:41:27;;;;;;;2.07;1.00;;;11.10;99.90;;;;;;5008131;28;20021;-79
2022/11/16 08:43:53;;;;;;;1.98;0.90;;;11.20;99.90;;;;;;5005939;28;20122;-79
2022/11/16 08:46:19;;;;;;;2.97;0.90;;;11.20;99.90;;;;;;5029128;28;20067;-79
2022/11/16 08:48:45;;;;;;;2.03;1.00;;;11.30;99.90;;;;;;5021084;28;20032;-79
2022/11/16 08:51:13;;;;;;;2.50;0.88;;;11.30;99.90;;;;;;5001837;28;20029;-78
2022/11/16 08:53:39;;;;;;;2.58;1.00;;;11.30;99.90;;;;;;5032011;28;20451;-79
2022/11/16 08:56:12;;;;;;;3.13;0.90;;;11.40;99.90;;;;;;5013247;28;20262;-79
2022/11/16 08:58:38;;;;;;;1.60;0.98;;;11.40;99.90;;;;;;5007531;28;20540;-79
2022/11/16 09:01:12;;;;;;;2.30;0.70;;;11.50;99.90;;;;;;5029254;28;20089;-79
2022/11/16 09:03:38;;;;;;;4.17;1.07;;;11.60;99.90;;;;;;5024247;28;20040;-79
2022/11/16 09:06:05;;;;;;;2.78;0.77;;;11.60;99.90;;;;;;5001774;28;26050;-78
2022/11/16 09:08:31;;;;;;;2.97;0.90;;;11.70;99.90;;;;;;5029441;28;20018;-79
2022/11/16 09:10:57;;;;;;;5.18;0.90;;;11.70;99.90;;;;;;5012660;28;20025;-79
2022/11/16 09:13:22;;;;;;;4.17;1.00;;;11.80;99.90;;;;;;5033317;28;20017;-78
2022/11/16 09:15:56;;;;;;;1.92;0.90;;;11.90;99.90;;;;;;5013748;28;20075;-78
2022/11/16 09:18:21;;;;;;;2.40;0.80;;;12.10;99.90;;;;;;5029614;28;20290;-78
2022/11/16 09:20:47;;;;;;;3.75;1.00;;;12.30;99.90;;;;;;5000227;28;20043;-79
2022/11/16 09:23:13;;;;;;;2.93;1.17;;;12.60;99.90;;;;;;5020663;28;20083;-79
2022/11/16 09:25:38;;;;;;;2.20;1.00;;;13.00;99.90;;;;;;5025562;28;20233;-79
2022/11/16 09:28:04;;;;;;;3.03;1.00;;;13.40;99.90;;;;;;5042866;28;20502;-79
2022/11/16 09:30:30;;;;;;;3.70;1.08;;;13.70;99.90;;;;;;5018781;28;20079;-79
2022/11/16 09:32:57;;;;;;;2.70;1.00;;;14.20;99.90;;;;;;5019077;28;20026;-78
2022/11/16 09:35:23;;;;;;;5.10;1.13;;;14.70;99.90;;;;;;5018898;28;20535;-79
2022/11/16 09:37:49;;;;;;;2.90;1.10;;;15.10;99.90;;;;;;5002068;28;20087;-78
2022/11/16 09:40:15;;;;;;;6.33;1.33;;;15.30;99.90;;;;;;5055536;28;20025;-78
2022/11/16 09:42:54;;;;;;;4.45;1.27;;;15.60;99.90;;;;;;5018968;28;20385;-78
2022/11/16 09:45:38;;;;;;;3.47;1.00;;;15.80;99.90;;;;;;5012245;28;20210;-78
2022/11/16 09:48:08;;;;;;;3.28;1.20;;;15.90;99.90;;;;;;5026398;28;20105;-78
2022/11/16 09:50:40;;;;;;;3.13;0.90;;;16.10;99.90;;;;;;5028277;28;20434;-78
2022/11/16 09:53:18;;;;;;;4.00;1.00;;;16.10;99.90;;;;;;4998421;28;20043;-78
2022/11/16 09:55:59;;;;;;;2.20;1.00;;;16.20;99.90;;;;;;5057724;28;20048;-79
2022/11/16 09:59:03;;;;;;;3.45;1.10;;;16.20;99.90;;;;;;5017805;28;20626;-78
2022/11/16 10:01:35;;;;;;;2.70;0.80;;;16.10;98.90;;;;;;5001452;28;20228;-79
2022/11/16 10:04:26;;;;;;;3.00;0.90;;;16.00;99.90;;;;;;5030698;28;20033;-78
2022/11/16 10:07:15;;;;;;;4.27;1.30;;;15.90;98.30;;;;;;5001318;28;20119;-79
2022/11/16 10:09:43;;;;;;;3.28;0.95;;;15.80;99.60;;;;;;5027940;28;20025;-78
2022/11/16 10:12:44;;;;;;;2.05;0.98;;;15.60;99.90;;;;;;5011462;28;20557;-78
2022/11/16 10:15:28;;;;;;;1.58;0.85;;;15.40;98.80;;;;;;5028347;28;20032;-78
2022/11/16 10:18:24;;;;;;;2.45;0.90;;;15.20;98.80;;;;;;5011321;28;20479;-78
2022/11/16 10:20:50;;;;;;;1.83;0.80;;;15.10;99.60;;;;;;5050800;28;20400;-79
2022/11/16 10:23:38;;;;;;;3.15;0.90;;;15.00;99.90;;;;;;4999177;28;20374;-78
2022/11/16 10:26:09;;;;;;;2.70;0.95;;;14.90;99.90;;;;;;5028511;28;20044;-78
2022/11/16 10:28:57;;;;;;;3.30;1.00;;;14.80;99.90;;;;;;5014004;28;20035;-79
2022/11/16 10:32:06;;;;;;;2.00;0.80;;;14.70;99.90;;;;;;5001442;28;20699;-77
2022/11/16 10:34:45;;;;;;;2.27;0.80;;;14.60;99.90;;;;;;5024792;28;20730;-78
2022/11/16 10:37:12;;;;;;;2.35;0.90;;;14.50;99.90;;;;;;5017240;28;20033;-78
2022/11/16 10:39:39;;;;;;;4.05;1.10;;;14.40;99.90;;;;;;5005839;28;20030;-78
2022/11/16 10:42:13;;;;;;;2.38;0.70;;;14.40;99.90;;;;;;5018891;28;20021;-77
2022/11/16 10:45:11;;;;;;;3.00;0.90;;;14.40;99.90;;;;;;5017433;28;20421;-78
2022/11/16 10:47:45;;;;;;;2.83;0.90;;;14.40;99.90;;;;;;5005676;28;20045;-77
2022/11/16 10:50:36;;;;;;;2.30;0.80;;;14.60;99.90;;;;;;5020698;28;20396;-77
2022/11/16 10:53:02;;;;;;;3.33;0.90;;;15.00;99.90;;;;;;5025169;28;20108;-77
2022/11/16 10:55:27;;;;;;;3.65;0.98;;;15.50;99.90;;;;;;5024095;28;20649;-77
2022/11/16 10:57:58;;;;;;;3.77;1.00;;;15.80;99.90;;;;;;5014363;28;20028;-78
2022/11/16 11:00:36;;;;;;;3.10;1.17;;;16.10;99.90;;;;;;5015830;28;20413;-78
2022/11/16 11:03:02;;;;;;;4.68;1.17;;;16.50;99.90;;;;;;5048803;28;20049;-79
2022/11/16 11:05:29;;;;;;;3.00;0.93;;;16.90;99.90;;;;;;5009378;28;20202;-78
2022/11/16 11:08:09;;;;;;;3.43;1.00;;;17.20;99.90;;;;;;5042142;28;20017;-78
2022/11/16 11:10:36;;;;;;;1.77;0.80;;;17.30;99.90;;;;;;5032572;28;20037;-77
2022/11/16 11:13:05;;;;;;;4.35;1.00;;;17.40;99.90;;;;;;5021111;28;20045;-77
2022/11/16 11:15:31;;;;;;;3.22;0.90;;;17.50;99.90;;;;;;5023341;28;20406;-77
2022/11/16 11:18:22;;;;;;;2.35;0.88;;;17.50;99.90;;;;;;5015558;28;20021;-76
2022/11/16 11:21:10;;;;;;;2.40;0.90;;;17.50;99.90;;;;;;5028939;28;20440;-77
2022/11/16 11:23:50;;;;;;;2.47;0.75;;;17.40;98.50;;;;;;5018631;28;20017;-77
2022/11/16 11:26:38;;;;;;;2.40;0.90;;;17.40;98.40;;;;;;5008261;28;20029;-78
2022/11/16 11:29:33;;;;;;;1.65;0.80;;;17.20;97.90;;;;;;5042763;28;20083;-77
2022/11/16 11:32:19;;;;;;;4.43;0.90;;;17.00;97.50;;;;;;5003513;28;20029;-77
2022/11/16 11:34:49;;;;;;;2.30;0.70;;;16.90;97.00;;;;;;5008274;28;20574;-77
2022/11/16 11:37:19;;;;;;;3.15;0.80;;;16.80;99.90;;;;;;5033769;28;20559;-77
2022/11/16 11:39:45;;;;;;;2.15;0.70;;;16.80;99.90;;;;;;5022136;28;20193;-78
2022/11/16 11:42:14;;;;;;;2.63;0.80;;;16.90;99.90;;;;;;5003477;28;20057;-77
2022/11/16 11:44:48;;;;;;;4.27;0.90;;;16.90;99.90;;;;;;4992734;28;20739;-77
2022/11/16 11:47:32;;;;;;;3.17;0.88;;;16.90;99.90;;;;;;5019311;28;20250;-78
2022/11/16 11:50:18;;;;;;;3.60;0.80;;;16.90;98.90;;;;;;5000378;28;20377;-77
2022/11/16 11:53:02;;;;;;;3.55;0.90;;;16.90;99.50;;;;;;5023861;28;20021;-78
2022/11/16 11:55:28;;;;;;;3.65;0.80;;;16.80;99.90;;;;;;5022491;28;20053;-78
2022/11/16 11:57:55;;;;;;;2.27;0.97;;;16.80;99.90;;;;;;5000383;28;20025;-77
2022/11/16 12:00:22;;;;;;;3.72;0.95;;;16.70;99.90;;;;;;5036617;28;20288;-78
2022/11/16 12:03:07;;;;;;;1.85;0.68;;;16.70;99.90;;;;;;4999538;28;20039;-78
2022/11/16 12:05:46;;;;;;;2.95;0.90;;;16.70;99.90;;;;;;5012485;28;20025;-78
2022/11/16 12:08:59;;;;;;;2.00;0.90;;;16.60;99.90;;;;;;5043437;28;20022;-77
2022/11/16 12:12:02;;;;;;;7.20;1.20;;;16.60;99.20;;;;;;5021039;28;20037;-77
2022/11/16 12:14:46;;;;;;;2.85;1.10;;;16.60;98.30;;;;;;5031637;28;20041;-78
2022/11/16 12:17:39;;;;;;;3.33;1.00;;;16.70;99.90;;;;;;5017549;28;20037;-77
2022/11/16 12:20:28;;;;;;;2.80;1.00;;;16.80;99.90;;;;;;4998581;28;20714;-79
2022/11/16 12:23:15;;;;;;;2.28;0.90;;;16.80;99.90;;;;;;5014782;28;20507;-77
2022/11/16 12:26:14;;;;;;;2.40;0.73;;;16.90;99.90;;;;;;5019907;28;20043;-77
2022/11/16 12:28:43;;;;;;;2.83;0.90;;;16.80;98.80;;;;;;5015881;28;20028;-78
2022/11/16 12:31:32;;;;;;;4.25;1.17;;;16.80;99.90;;;;;;5006540;28;20674;-77
2022/11/16 12:34:04;;;;;;;4.45;0.85;;;16.80;98.80;;;;;;5008217;28;20447;-77
2022/11/16 12:36:47;;;;;;;2.88;0.90;;;16.70;99.90;;;;;;5004051;28;20087;-78
2022/11/16 12:39:16;;;;;;;2.37;0.70;;;16.70;99.20;;;;;;5024737;28;20028;-78
2022/11/16 12:41:54;;;;;;;2.97;0.80;;;16.70;99.90;;;;;;4999314;28;20126;-78
2022/11/16 12:44:54;;;;;;;4.05;0.80;;;16.70;99.90;;;;;;5003289;28;20513;-78
2022/11/16 12:47:35;;;;;;;3.47;1.10;;;16.80;99.60;;;;;;5018091;28;20426;-77
2022/11/16 12:50:18;;;;;;;2.10;0.98;;;16.80;99.90;;;;;;4972254;28;21256;-78
2022/11/16 12:53:15;;;;;;;1.33;0.90;;;16.80;99.90;;;;;;5028731;28;20041;-78
2022/11/16 12:56:01;;;;;;;3.33;0.90;;;16.80;99.90;;;;;;5043348;28;20041;-77
2022/11/16 12:58:38;;;;;;;4.60;1.00;;;16.90;99.70;;;;;;5006019;28;20051;-77
2022/11/16 13:01:19;;;;;;;3.75;0.80;;;16.80;99.30;;;;;;4988864;28;20033;-78
2022/11/16 13:04:02;;;;;;;3.05;1.08;;;16.80;99.10;;;;;;5051054;28;20026;-77
2022/11/16 13:06:43;;;;;;;4.07;1.20;;;16.80;98.90;;;;;;4989834;28;20121;-78
2022/11/16 13:09:28;;;;;;;2.95;1.10;;;16.70;99.20;;;;;;5022552;28;20258;-77
2022/11/16 13:11:57;;;;;;;4.65;1.10;;;16.60;98.40;;;;;;5012570;28;20586;-77
2022/11/16 13:14:28;;;;;;;4.18;1.15;;;16.50;98.90;;;;;;4999579;28;20025;-77
2022/11/16 13:16:56;;;;;;;3.25;0.93;;;16.40;98.70;;;;;;5024453;28;20532;-78
2022/11/16 13:19:23;;;;;;;2.83;0.93;;;16.40;99.00;;;;;;5026719;28;20074;-78
2022/11/16 13:22:02;;;;;;;6.72;1.30;;;16.30;99.90;;;;;;4981017;28;20037;-77
2022/11/16 13:24:36;;;;;;;4.00;1.20;;;16.30;99.90;;;;;;5028323;28;20021;-77
2022/11/16 13:27:20;;;;;;;3.45;1.10;;;16.30;99.70;;;;;;5016890;28;20029;-77
2022/11/16 13:30:12;;;;;;;4.90;1.52;;;16.30;99.90;;;;;;4996944;28;20541;-78
2022/11/16 13:33:03;;;;;;;3.17;1.00;;;16.20;99.50;;;;;;5012728;28;20694;-78
2022/11/16 13:35:29;;;;;;;4.65;1.35;;;16.20;99.20;;;;;;5024910;28;20104;-78
2022/11/16 13:37:55;;;;;;;3.63;1.27;;;16.20;99.90;;;;;;5003058;28;22602;-77
2022/11/16 13:40:21;;;;;;;2.27;0.90;;;16.20;99.90;;;;;;5010743;28;20507;-78
2022/11/16 13:43:04;;;;;;;2.13;0.93;;;16.10;99.90;;;;;;5018431;28;20564;-77
2022/11/16 13:45:58;;;;;;;2.83;1.10;;;16.20;99.90;;;;;;5000851;28;20037;-77
2022/11/16 13:48:33;;;;;;;2.43;1.00;;;16.30;99.90;;;;;;5026237;28;20034;-77
2022/11/16 13:51:18;;;;;;;2.80;0.88;;;16.30;99.90;;;;;;5002549;28;20064;-78
2022/11/16 13:53:49;;;;;;;3.38;0.90;;;16.40;99.90;;;;;;5016010;28;20033;-77
2022/11/16 13:56:17;;;;;;;3.08;1.00;;;16.40;99.90;;;;;;5008304;28;20040;-78